Time;durP1;ratioP1;P1;durP2;ratioP2;P2;SDS_P1;SDS_P2;PMS_P1;PMS_P2;Temp;Humidity;BMP_temperature;BMP_pressure;BME280_temperature;BME280_humidity;BME280_pressure;Samples;Min_cycle;Max_cycle;Signal;HPM_P1;HPM_P2
2023/03/31 03:20:41;;;;;;;7.75;3.00;;;12.30;99.90;;;;;;6165981;22;20366;31
2023/03/31 03:23:08;;;;;;;6.87;3.53;;;12.30;99.90;;;;;;6121363;23;20372;-76
2023/03/31 03:25:35;;;;;;;6.13;2.67;;;12.30;99.90;;;;;;6124087;23;20720;-77
2023/03/31 03:28:02;;;;;;;5.70;2.90;;;12.30;99.90;;;;;;6096752;23;20379;-77
2023/03/31 03:30:29;;;;;;;8.52;3.90;;;12.30;99.90;;;;;;6098058;23;20705;-77
2023/03/31 03:32:57;;;;;;;7.85;3.08;;;12.30;99.90;;;;;;6096689;23;20754;-77
2023/03/31 03:35:24;;;;;;;6.30;2.92;;;12.30;99.90;;;;;;6097986;23;20368;-77
2023/03/31 03:37:51;;;;;;;6.18;2.60;;;12.20;99.90;;;;;;6122326;23;20379;-77
2023/03/31 03:40:18;;;;;;;6.82;2.72;;;12.20;99.90;;;;;;6145565;23;20370;-76
2023/03/31 03:42:45;;;;;;;5.38;2.38;;;12.20;99.90;;;;;;6150233;23;20453;-77
2023/03/31 03:45:12;;;;;;;5.50;2.67;;;12.20;99.90;;;;;;6150612;23;20370;-78
2023/03/31 03:47:39;;;;;;;6.25;2.78;;;12.20;99.90;;;;;;6126354;23;20382;-76
2023/03/31 03:50:07;;;;;;;5.63;2.65;;;12.20;99.90;;;;;;6125312;23;20374;-76
2023/03/31 03:52:33;;;;;;;6.43;2.75;;;12.30;99.90;;;;;;6150974;23;20370;-76
2023/03/31 03:55:00;;;;;;;6.93;2.83;;;12.30;99.90;;;;;;6149981;23;20386;-77
2023/03/31 03:57:27;;;;;;;6.47;2.88;;;12.30;99.90;;;;;;6126705;23;20378;-77
2023/03/31 03:59:54;;;;;;;8.18;3.28;;;12.20;99.90;;;;;;6124959;23;20390;-76
2023/03/31 04:02:21;;;;;;;8.10;3.05;;;12.20;99.90;;;;;;6159986;23;20430;-77
2023/03/31 04:04:50;;;;;;;9.27;4.10;;;12.10;99.90;;;;;;6182203;23;20451;-76
2023/03/31 04:07:17;;;;;;;6.28;3.20;;;12.00;99.90;;;;;;6181424;23;20864;-76
2023/03/31 04:09:43;;;;;;;6.93;3.45;;;11.90;99.90;;;;;;6156006;23;20423;-77
2023/03/31 04:12:10;;;;;;;7.60;3.55;;;11.90;99.90;;;;;;6181018;23;20766;-77
2023/03/31 04:14:37;;;;;;;8.05;3.17;;;11.80;99.90;;;;;;6156204;23;20372;-76
2023/03/31 04:17:04;;;;;;;8.30;3.28;;;11.80;99.90;;;;;;6154761;23;20372;-77
2023/03/31 04:19:31;;;;;;;7.50;3.78;;;11.80;99.90;;;;;;6155902;23;20381;-77
2023/03/31 04:22:01;;;;;;;7.70;3.45;;;11.70;99.90;;;;;;6165656;23;20758;-76
2023/03/31 04:24:31;;;;;;;6.80;3.13;;;11.70;99.90;;;;;;6182280;23;20365;-76
2023/03/31 04:26:59;;;;;;;5.38;3.03;;;11.70;99.90;;;;;;6205038;23;20435;-76
2023/03/31 04:29:26;;;;;;;8.20;3.78;;;11.80;99.90;;;;;;6205447;23;20423;-77
2023/03/31 04:31:57;;;;;;;6.50;2.88;;;11.70;99.90;;;;;;6205756;23;20392;-77
2023/03/31 04:34:33;;;;;;;6.05;2.63;;;11.70;99.90;;;;;;6204199;23;20364;-76
2023/03/31 04:37:01;;;;;;;7.55;3.05;;;11.70;99.90;;;;;;6204534;23;20384;-77
2023/03/31 04:39:29;;;;;;;6.67;2.77;;;11.70;99.90;;;;;;6181958;23;20413;-76
2023/03/31 04:41:57;;;;;;;11.23;3.13;;;11.80;99.90;;;;;;6180584;23;20382;-77
2023/03/31 04:44:25;;;;;;;4.47;2.65;;;11.80;99.90;;;;;;6204268;23;20383;-76
2023/03/31 04:46:52;;;;;;;6.97;2.53;;;11.80;99.90;;;;;;6205167;23;20382;-77
2023/03/31 04:49:19;;;;;;;6.65;2.70;;;11.80;99.90;;;;;;6204682;23;20451;-76
2023/03/31 04:51:46;;;;;;;8.40;6.18;;;11.80;99.90;;;;;;6205378;23;20419;-77
2023/03/31 04:54:13;;;;;;;9.27;4.10;;;11.80;99.90;;;;;;6204539;23;20745;-77
2023/03/31 04:56:40;;;;;;;4.88;2.88;;;11.90;99.90;;;;;;6204780;23;20373;-77
2023/03/31 04:59:07;;;;;;;7.50;3.38;;;11.90;99.90;;;;;;6181051;23;20372;-76
2023/03/31 05:01:35;;;;;;;9.77;3.50;;;11.90;99.90;;;;;;6181357;23;20368;-76
2023/03/31 05:04:03;;;;;;;5.70;2.95;;;11.80;99.90;;;;;;6204476;23;20679;-77
2023/03/31 05:06:30;;;;;;;9.93;3.42;;;11.80;99.90;;;;;;6204830;23;20376;-77
2023/03/31 05:08:57;;;;;;;5.75;3.30;;;11.80;99.90;;;;;;6181356;23;20438;-76
2023/03/31 05:11:24;;;;;;;6.30;3.38;;;11.80;99.90;;;;;;6203839;23;20376;-76
2023/03/31 05:13:51;;;;;;;8.68;3.45;;;11.70;99.90;;;;;;6204865;23;20426;-77
2023/03/31 05:16:18;;;;;;;7.03;3.28;;;11.70;99.90;;;;;;6204262;23;20403;-76
2023/03/31 05:18:46;;;;;;;10.13;3.20;;;11.70;99.90;;;;;;6204657;23;20455;-76
2023/03/31 05:21:18;;;;;;;6.30;2.88;;;11.60;99.90;;;;;;6202363;23;20435;-77
2023/03/31 05:23:46;;;;;;;8.70;2.95;;;11.60;99.90;;;;;;6155464;23;20427;-76
2023/03/31 05:26:13;;;;;;;7.20;2.90;;;11.50;99.90;;;;;;6154277;23;20435;-76
2023/03/31 05:28:41;;;;;;;11.40;3.83;;;11.50;99.90;;;;;;6155109;23;20380;-77
2023/03/31 05:31:08;;;;;;;6.80;2.85;;;11.50;99.90;;;;;;6154354;23;20384;-77
2023/03/31 05:33:40;;;;;;;7.22;3.00;;;11.50;99.90;;;;;;6181899;23;20450;-77
2023/03/31 05:36:10;;;;;;;7.70;3.28;;;11.50;99.90;;;;;;6154685;23;20380;-76
2023/03/31 05:38:37;;;;;;;4.55;2.40;;;11.50;99.90;;;;;;6155756;23;20427;-76
2023/03/31 05:41:05;;;;;;;8.63;5.00;;;11.60;99.90;;;;;;6181284;23;20750;-77
2023/03/31 05:43:32;;;;;;;6.70;3.83;;;11.50;99.90;;;;;;6154437;23;20419;-76
2023/03/31 05:45:59;;;;;;;5.85;3.75;;;11.60;99.90;;;;;;6155186;23;20408;-77
2023/03/31 05:48:27;;;;;;;6.30;3.42;;;11.70;99.90;;;;;;6154022;23;20750;-79
2023/03/31 05:50:58;;;;;;;6.28;2.92;;;11.60;99.90;;;;;;6181370;23;20694;-76
2023/03/31 05:53:25;;;;;;;6.35;3.08;;;11.70;99.90;;;;;;6154434;23;20427;-76
2023/03/31 05:56:00;;;;;;;3.58;2.15;;;11.70;99.90;;;;;;6154958;23;20400;-77
2023/03/31 05:58:29;;;;;;;5.93;2.83;;;11.70;99.90;;;;;;6154138;23;20372;-76
2023/03/31 06:01:18;;;;;;;7.70;2.67;;;11.80;99.90;;;;;;6181064;23;20380;-77
2023/03/31 06:03:45;;;;;;;6.72;2.92;;;11.90;99.90;;;;;;6179788;23;20680;-77
2023/03/31 06:06:13;;;;;;;4.97;2.23;;;11.90;99.90;;;;;;6155359;23;20875;-76
2023/03/31 06:08:41;;;;;;;6.43;2.95;;;11.90;99.90;;;;;;6179891;23;20383;-77
2023/03/31 06:11:12;;;;;;;6.38;3.38;;;12.00;99.90;;;;;;6181578;23;20403;-77
2023/03/31 06:13:39;;;;;;;5.70;3.03;;;11.90;99.90;;;;;;6179795;23;20414;-77
2023/03/31 06:16:08;;;;;;;6.67;3.40;;;11.90;99.90;;;;;;6155470;23;20431;-77
2023/03/31 06:18:35;;;;;;;4.65;2.70;;;11.90;99.90;;;;;;6153849;23;20723;-78
2023/03/31 06:21:03;;;;;;;6.93;2.95;;;12.00;99.90;;;;;;6181370;23;20381;-77
2023/03/31 06:23:31;;;;;;;5.28;2.67;;;12.00;99.90;;;;;;6154121;23;20377;-77
2023/03/31 06:26:07;;;;;;;6.20;2.50;;;12.00;99.90;;;;;;6155755;23;20800;-77
2023/03/31 06:28:35;;;;;;;5.18;2.75;;;12.00;99.90;;;;;;6154181;23;20431;-77
2023/03/31 06:31:04;;;;;;;5.32;2.72;;;12.00;99.90;;;;;;6155220;23;20372;-77
2023/03/31 06:33:33;;;;;;;8.55;2.88;;;12.00;99.90;;;;;;6154118;23;20383;-78
2023/03/31 06:36:02;;;;;;;7.35;2.92;;;12.00;99.90;;;;;;6182341;23;20459;-77
2023/03/31 06:38:30;;;;;;;7.07;3.25;;;12.10;99.90;;;;;;6156160;23;20376;-77
2023/03/31 06:40:57;;;;;;;7.55;2.72;;;12.10;99.90;;;;;;6157381;23;20384;-77
2023/03/31 06:43:24;;;;;;;6.47;3.25;;;12.20;99.90;;;;;;6156327;23;20701;-78
2023/03/31 06:45:55;;;;;;;7.87;3.90;;;12.20;99.90;;;;;;6157074;23;20442;-77
2023/03/31 06:48:24;;;;;;;8.88;3.13;;;12.20;99.90;;;;;;6182999;23;20411;-77
2023/03/31 06:50:52;;;;;;;7.13;3.20;;;12.30;99.90;;;;;;6156110;23;20388;-77
2023/03/31 06:53:20;;;;;;;4.82;2.70;;;12.20;99.90;;;;;;6157461;23;20372;-77
2023/03/31 06:55:47;;;;;;;8.10;3.33;;;12.30;99.90;;;;;;6155766;23;20372;-77
2023/03/31 06:58:14;;;;;;;5.18;2.72;;;12.30;99.90;;;;;;6156932;23;20368;-77
2023/03/31 07:00:41;;;;;;;6.22;2.97;;;12.30;99.90;;;;;;6181826;23;20455;-76
2023/03/31 07:03:08;;;;;;;7.93;3.17;;;12.30;99.90;;;;;;6157389;23;20763;-76
2023/03/31 07:05:35;;;;;;;7.25;3.47;;;12.30;99.90;;;;;;6156355;23;20400;-78
2023/03/31 07:08:02;;;;;;;8.80;3.33;;;12.30;99.90;;;;;;6157252;23;20380;-77
2023/03/31 07:10:31;;;;;;;5.20;2.70;;;12.30;99.90;;;;;;6155554;23;20422;-77
2023/03/31 07:12:58;;;;;;;7.50;3.40;;;12.30;99.90;;;;;;6157334;23;20779;-77
2023/03/31 07:15:27;;;;;;;7.28;3.50;;;12.30;99.90;;;;;;6154206;23;20408;-77
2023/03/31 07:18:01;;;;;;;8.85;3.58;;;12.30;99.90;;;;;;6176849;23;20746;-77
2023/03/31 07:20:29;;;;;;;7.63;3.42;;;12.30;99.90;;;;;;6147658;23;20715;-77
2023/03/31 07:22:56;;;;;;;11.55;4.28;;;12.30;99.90;;;;;;6175509;23;20360;-77
2023/03/31 07:25:23;;;;;;;10.07;4.38;;;12.20;99.90;;;;;;6179931;23;20379;-77
2023/03/31 07:27:50;;;;;;;13.35;5.40;;;12.20;99.90;;;;;;6154701;23;20462;-77
2023/03/31 07:30:20;;;;;;;10.50;5.00;;;12.20;99.90;;;;;;6153878;23;20448;-77
2023/03/31 07:32:49;;;;;;;11.35;5.20;;;12.20;99.90;;;;;;6155328;23;20703;-77
2023/03/31 07:35:18;;;;;;;9.93;4.75;;;12.20;99.90;;;;;;6156435;23;20387;-77
2023/03/31 07:37:47;;;;;;;8.07;4.38;;;12.20;99.90;;;;;;6181230;23;20384;-76
2023/03/31 07:40:20;;;;;;;7.47;4.65;;;12.10;99.90;;;;;;6154550;23;20430;-77
2023/03/31 07:42:50;;;;;;;6.95;4.47;;;12.20;99.90;;;;;;6180147;23;20634;-75
2023/03/31 07:45:22;;;;;;;8.57;4.43;;;12.20;99.90;;;;;;6181071;23;20400;-76
2023/03/31 07:47:49;;;;;;;9.52;5.25;;;12.20;99.90;;;;;;6154977;23;20445;-76
2023/03/31 07:50:17;;;;;;;12.07;4.60;;;12.10;99.90;;;;;;6155808;23;20422;-77
2023/03/31 07:52:44;;;;;;;10.20;4.75;;;12.10;99.90;;;;;;6155319;23;20377;-76
2023/03/31 07:55:13;;;;;;;12.32;4.78;;;12.00;99.90;;;;;;6157404;23;20446;-83
2023/03/31 07:57:40;;;;;;;11.82;5.43;;;12.00;99.90;;;;;;6183709;23;20396;-82
2023/03/31 08:00:11;;;;;;;8.80;4.60;;;12.10;99.90;;;;;;6158725;23;20367;-83
2023/03/31 08:02:41;;;;;;;7.97;4.45;;;12.10;99.90;;;;;;6156174;23;20376;-83
2023/03/31 08:05:11;;;;;;;9.73;5.10;;;12.00;99.90;;;;;;6159284;23;20422;-83
2023/03/31 08:07:40;;;;;;;6.18;4.18;;;12.00;99.90;;;;;;6157938;23;20376;-84
2023/03/31 08:10:10;;;;;;;7.47;4.38;;;12.00;99.90;;;;;;6157203;23;20373;-82
2023/03/31 08:12:37;;;;;;;7.53;4.35;;;12.00;99.90;;;;;;6182288;23;20780;-82
2023/03/31 08:15:05;;;;;;;8.20;4.40;;;12.10;99.90;;;;;;6184313;23;20423;-84
2023/03/31 08:17:32;;;;;;;6.63;4.30;;;12.10;99.90;;;;;;6185144;23;20455;-83
2023/03/31 08:19:59;;;;;;;8.50;4.03;;;12.20;99.90;;;;;;6158613;23;20373;-82
2023/03/31 08:22:32;;;;;;;10.85;4.28;;;12.20;99.90;;;;;;6183830;23;20450;-83
2023/03/31 08:25:00;;;;;;;8.43;3.57;;;12.30;99.90;;;;;;6213695;23;20394;-83
2023/03/31 08:27:27;;;;;;;9.43;3.85;;;12.30;99.90;;;;;;6215037;23;20402;-81
2023/03/31 08:29:54;;;;;;;7.63;3.83;;;12.30;99.90;;;;;;6186017;23;20497;-85
2023/03/31 08:32:24;;;;;;;11.77;4.00;;;12.30;99.90;;;;;;6187252;23;20366;-83
2023/03/31 08:34:51;;;;;;;8.20;3.87;;;12.40;99.90;;;;;;6212376;23;20433;-82
2023/03/31 08:37:18;;;;;;;10.13;4.10;;;12.50;99.90;;;;;;6213008;23;20402;-85
2023/03/31 08:39:45;;;;;;;10.80;4.57;;;12.50;99.90;;;;;;6186310;23;20374;-85
2023/03/31 08:42:35;;;;;;;7.53;3.85;;;12.50;99.90;;;;;;6184895;23;20437;-85
2023/03/31 08:45:08;;;;;;;7.00;3.35;;;12.40;99.90;;;;;;6186705;23;20755;-84
2023/03/31 08:47:36;;;;;;;8.20;4.03;;;12.40;99.90;;;;;;6187709;23;20402;-84
2023/03/31 08:50:14;;;;;;;9.43;4.40;;;12.40;99.90;;;;;;6186268;23;20402;-84
2023/03/31 08:53:03;;;;;;;8.23;3.70;;;12.50;99.90;;;;;;6186059;23;20457;-84
2023/03/31 08:55:46;;;;;;;7.68;3.97;;;12.60;99.90;;;;;;6213202;23;20433;-85
2023/03/31 08:58:26;;;;;;;8.73;4.20;;;12.70;99.90;;;;;;6211145;23;20362;-85
2023/03/31 09:01:34;;;;;;;10.40;4.47;;;12.70;99.90;;;;;;6185967;23;20379;-85
2023/03/31 09:04:51;;;;;;;8.13;4.43;;;12.80;99.90;;;;;;6212845;23;20367;-84
2023/03/31 09:07:39;;;;;;;8.10;4.38;;;12.90;99.90;;;;;;6186023;23;20362;-85
2023/03/31 09:10:15;;;;;;;7.72;3.95;;;13.00;99.90;;;;;;6212019;23;20836;-84
2023/03/31 09:13:08;;;;;;;8.80;4.75;;;13.10;99.90;;;;;;6186607;23;20409;-85
2023/03/31 09:15:58;;;;;;;8.45;4.32;;;13.10;99.90;;;;;;6177412;23;20413;-83
2023/03/31 09:18:36;;;;;;;7.03;3.95;;;13.20;99.90;;;;;;6185915;23;20367;-85
2023/03/31 09:21:31;;;;;;;6.07;3.83;;;13.20;99.90;;;;;;6182388;23;20706;-83
2023/03/31 09:24:15;;;;;;;7.70;3.92;;;13.30;99.90;;;;;;6156233;23;20368;-85
2023/03/31 09:26:55;;;;;;;6.57;3.75;;;13.40;99.90;;;;;;6156900;23;20834;-86
2023/03/31 09:29:40;;;;;;;7.30;3.80;;;13.40;99.90;;;;;;6184559;23;20380;-85
2023/03/31 09:32:36;;;;;;;8.97;3.97;;;13.40;99.90;;;;;;6154241;23;20419;-85
2023/03/31 09:35:21;;;;;;;8.30;4.20;;;13.40;99.90;;;;;;6177466;23;20368;-85
2023/03/31 09:37:50;;;;;;;8.23;4.68;;;13.40;99.90;;;;;;6156476;23;20379;-85
2023/03/31 09:40:24;;;;;;;12.10;5.22;;;13.30;99.90;;;;;;6157625;23;20372;-85
2023/03/31 09:43:18;;;;;;;10.00;5.57;;;13.30;99.90;;;;;;6155547;23;20369;-84
2023/03/31 09:45:45;;;;;;;11.35;5.43;;;13.30;99.90;;;;;;6150940;23;20704;-84
2023/03/31 09:48:35;;;;;;;8.88;4.20;;;13.50;99.90;;;;;;6181518;23;20411;-83
2023/03/31 09:51:05;;;;;;;12.05;4.95;;;13.50;99.90;;;;;;6179959;23;20361;-84
2023/03/31 09:53:50;;;;;;;9.05;4.68;;;13.50;99.90;;;;;;6182236;23;20745;-84
2023/03/31 09:56:42;;;;;;;7.57;4.20;;;13.50;99.90;;;;;;6155464;23;21241;-83
2023/03/31 09:59:17;;;;;;;7.60;4.25;;;13.60;99.90;;;;;;6181073;23;20372;-84
2023/03/31 10:01:48;;;;;;;10.15;4.57;;;13.60;99.90;;;;;;6155776;23;20376;-84
2023/03/31 10:04:22;;;;;;;9.77;4.73;;;13.80;99.90;;;;;;6155285;23;20365;-84
2023/03/31 10:06:51;;;;;;;9.32;4.38;;;13.90;99.90;;;;;;6155299;23;20400;-83
2023/03/31 10:09:30;;;;;;;6.60;4.60;;;14.00;99.90;;;;;;6154896;23;20762;-84
2023/03/31 10:12:05;;;;;;;12.88;5.00;;;14.00;99.90;;;;;;6154996;23;20376;-84
2023/03/31 10:14:39;;;;;;;10.98;4.70;;;14.10;99.90;;;;;;6155882;23;20448;-83
2023/03/31 10:17:13;;;;;;;9.13;4.82;;;14.20;99.90;;;;;;6154159;23;20372;-84
2023/03/31 10:19:56;;;;;;;7.80;5.10;;;14.40;99.90;;;;;;6156064;23;20372;-84
2023/03/31 10:22:30;;;;;;;9.48;4.90;;;14.70;99.90;;;;;;6195884;23;20364;-83
2023/03/31 10:25:14;;;;;;;9.10;4.95;;;14.90;99.90;;;;;;6205298;23;20848;-83
2023/03/31 10:27:46;;;;;;;9.13;5.00;;;15.00;99.20;;;;;;6181163;23;20395;-83
2023/03/31 10:30:21;;;;;;;10.07;5.55;;;15.00;98.70;;;;;;6180482;23;20381;-83
2023/03/31 10:32:48;;;;;;;7.70;4.65;;;14.90;96.20;;;;;;6179256;23;20368;-83
2023/03/31 10:35:29;;;;;;;9.10;5.18;;;14.90;98.70;;;;;;6180500;23;20710;-83
2023/03/31 10:38:00;;;;;;;9.90;4.70;;;15.00;99.90;;;;;;6205265;23;20409;-83
2023/03/31 10:40:33;;;;;;;7.93;4.50;;;15.10;98.90;;;;;;6180443;23;20387;-82
2023/03/31 10:43:10;;;;;;;8.63;4.88;;;15.20;98.80;;;;;;6204698;23;20460;-84
2023/03/31 10:45:46;;;;;;;10.65;4.25;;;15.50;99.90;;;;;;6179281;23;20368;-82
2023/03/31 10:48:28;;;;;;;8.55;3.65;;;15.90;94.80;;;;;;6179988;23;20435;-83
2023/03/31 10:51:20;;;;;;;5.15;3.30;;;16.00;91.00;;;;;;6204447;23;20755;-83
2023/03/31 10:53:49;;;;;;;7.15;3.88;;;16.20;90.40;;;;;;6167820;23;20368;-82
2023/03/31 10:56:54;;;;;;;7.80;3.58;;;16.60;92.70;;;;;;6180321;23;20702;-82
2023/03/31 10:59:24;;;;;;;8.85;4.78;;;16.90;91.00;;;;;;6061543;23;20371;-82
2023/03/31 11:01:54;;;;;;;5.82;3.90;;;16.80;82.00;;;;;;6154898;23;20364;-83
2023/03/31 11:04:33;;;;;;;8.73;4.63;;;16.60;80.80;;;;;;6179850;23;20830;-81
2023/03/31 11:07:11;;;;;;;9.10;4.68;;;16.40;82.30;;;;;;6181148;23;20369;-81
2023/03/31 11:09:59;;;;;;;7.15;4.10;;;16.00;83.00;;;;;;6180238;23;20392;-82
2023/03/31 11:12:37;;;;;;;8.32;4.65;;;15.90;88.10;;;;;;6181654;23;20769;-81
2023/03/31 11:15:16;;;;;;;8.95;4.07;;;15.70;89.60;;;;;;6180374;23;20380;-81
2023/03/31 11:18:02;;;;;;;9.07;4.55;;;15.70;90.60;;;;;;6180407;23;20435;-81
2023/03/31 11:20:57;;;;;;;5.85;3.70;;;15.60;91.00;;;;;;6178970;23;20418;-82
2023/03/31 11:23:40;;;;;;;7.80;4.30;;;15.60;90.80;;;;;;6181558;23;20739;-81
2023/03/31 11:26:20;;;;;;;9.38;4.13;;;15.60;90.70;;;;;;6181159;23;20456;-82
2023/03/31 11:29:24;;;;;;;7.63;4.15;;;15.60;91.20;;;;;;6181804;23;20380;-83
2023/03/31 11:32:00;;;;;;;8.38;3.80;;;15.50;90.90;;;;;;6181055;23;20380;-81
2023/03/31 11:34:48;;;;;;;8.27;4.20;;;15.40;91.80;;;;;;6181143;23;20365;-80
2023/03/31 11:37:30;;;;;;;8.10;4.38;;;15.40;92.60;;;;;;6182173;23;20396;-83
2023/03/31 11:40:15;;;;;;;7.47;4.15;;;15.40;90.30;;;;;;6181330;23;20360;-83
2023/03/31 11:42:51;;;;;;;7.00;4.00;;;15.40;90.40;;;;;;6180810;23;20401;-83
2023/03/31 11:45:22;;;;;;;8.13;4.07;;;15.40;93.10;;;;;;6182582;23;20388;-82
2023/03/31 11:47:53;;;;;;;6.28;3.50;;;15.50;91.30;;;;;;6180765;23;20400;-81
2023/03/31 11:50:25;;;;;;;6.37;3.57;;;15.60;91.20;;;;;;6182667;23;20388;-82
2023/03/31 11:53:03;;;;;;;8.32;3.88;;;15.70;91.90;;;;;;6181120;23;20376;-82
2023/03/31 11:55:31;;;;;;;7.47;4.00;;;15.80;91.50;;;;;;6182892;23;20372;-83
2023/03/31 11:58:10;;;;;;;6.30;4.47;;;15.80;90.60;;;;;;6182202;23;20426;-83
2023/03/31 12:00:46;;;;;;;7.72;4.20;;;15.80;86.70;;;;;;6182270;23;20373;-83
2023/03/31 12:03:27;;;;;;;6.10;3.30;;;15.90;83.20;;;;;;6181201;23;20431;-83
2023/03/31 12:06:02;;;;;;;5.85;4.20;;;15.90;82.90;;;;;;6182588;23;20376;-83
2023/03/31 12:08:57;;;;;;;8.85;3.35;;;15.90;82.80;;;;;;6181337;23;20385;-85
2023/03/31 12:11:37;;;;;;;8.00;3.33;;;15.70;86.40;;;;;;6180995;23;20481;-83
2023/03/31 12:14:20;;;;;;;4.60;3.00;;;15.70;84.60;;;;;;6181191;23;20452;-83
2023/03/31 12:17:00;;;;;;;6.45;2.63;;;15.60;82.40;;;;;;6182486;23;20365;-83
2023/03/31 12:19:52;;;;;;;5.47;3.42;;;15.50;84.60;;;;;;6183044;23;20360;-83
2023/03/31 12:22:33;;;;;;;6.85;3.88;;;15.30;85.80;;;;;;6205991;23;20699;-84
2023/03/31 12:25:00;;;;;;;6.03;3.53;;;15.30;88.30;;;;;;6182496;23;20746;-83
2023/03/31 12:27:50;;;;;;;7.80;3.50;;;15.30;89.70;;;;;;6180129;23;20368;-83
2023/03/31 12:30:21;;;;;;;5.35;3.25;;;15.40;87.40;;;;;;6180729;23;20811;-83
2023/03/31 12:33:18;;;;;;;6.60;3.70;;;15.40;87.20;;;;;;6180641;23;20702;-83
2023/03/31 12:36:12;;;;;;;7.05;3.75;;;15.40;89.90;;;;;;6167197;23;20672;-83
2023/03/31 12:39:17;;;;;;;7.45;3.95;;;15.30;91.70;;;;;;6178507;23;20376;-84
2023/03/31 12:41:44;;;;;;;8.73;3.67;;;15.20;90.30;;;;;;6180501;23;20364;-83
2023/03/31 12:44:29;;;;;;;5.97;2.85;;;15.20;90.00;;;;;;6180563;23;20400;-83
2023/03/31 12:46:59;;;;;;;7.70;3.28;;;15.20;90.00;;;;;;6180661;23;20373;-83
2023/03/31 12:49:49;;;;;;;8.48;4.00;;;15.30;89.20;;;;;;6181386;23;20448;-82
2023/03/31 12:52:22;;;;;;;7.20;3.55;;;15.20;87.80;;;;;;6181154;23;20698;-83
2023/03/31 12:55:10;;;;;;;6.45;3.88;;;15.10;89.40;;;;;;6183120;23;20368;-84
2023/03/31 12:57:37;;;;;;;7.63;4.25;;;15.10;90.70;;;;;;6180171;23;20376;-82
2023/03/31 13:00:10;;;;;;;5.22;3.13;;;15.10;89.00;;;;;;6181560;23;20751;-82
2023/03/31 13:02:38;;;;;;;8.05;4.50;;;15.10;90.20;;;;;;6179030;23;20369;-84
2023/03/31 13:05:36;;;;;;;6.22;3.70;;;15.20;90.50;;;;;;6181096;23;20372;-82
2023/03/31 13:08:06;;;;;;;7.15;3.65;;;15.30;90.00;;;;;;6180492;23;20368;-83
2023/03/31 13:10:58;;;;;;;8.35;3.80;;;15.30;90.10;;;;;;6181271;23;20378;-83
2023/03/31 13:13:25;;;;;;;6.00;3.13;;;15.30;89.80;;;;;;6205123;23;20426;-83
2023/03/31 13:15:55;;;;;;;5.95;3.40;;;15.30;90.60;;;;;;6181199;23;20759;-83
2023/03/31 13:18:23;;;;;;;6.05;3.47;;;15.30;90.40;;;;;;6180452;23;20364;-82
2023/03/31 13:21:03;;;;;;;6.47;3.60;;;15.30;90.60;;;;;;6181335;23;20400;-83
2023/03/31 13:23:34;;;;;;;5.47;3.28;;;15.30;88.70;;;;;;6155493;23;20376;-81
2023/03/31 13:26:01;;;;;;;5.55;2.83;;;15.30;90.40;;;;;;6156455;23;20434;-81
2023/03/31 13:28:41;;;;;;;6.28;3.45;;;15.30;92.20;;;;;;6155319;23;20375;-82
2023/03/31 13:31:14;;;;;;;6.63;3.53;;;15.20;91.40;;;;;;6155121;23;20455;-84
2023/03/31 13:34:00;;;;;;;7.72;3.75;;;15.20;91.10;;;;;;6156243;23;20459;-81
2023/03/31 13:36:33;;;;;;;8.70;3.78;;;15.20;91.30;;;;;;6180360;23;20368;-83
2023/03/31 13:39:16;;;;;;;7.53;3.97;;;15.10;93.20;;;;;;6155876;23;20380;-79
2023/03/31 13:41:57;;;;;;;8.70;4.37;;;15.30;92.30;;;;;;6155871;23;20792;-81
2023/03/31 13:44:50;;;;;;;7.00;3.47;;;15.40;92.20;;;;;;6154906;23;20381;-81
2023/03/31 13:47:43;;;;;;;7.90;4.20;;;15.50;94.00;;;;;;6181683;23;20372;-82
2023/03/31 13:50:38;;;;;;;7.90;4.47;;;15.80;90.00;;;;;;6135548;23;20980;-82
2023/03/31 13:53:20;;;;;;;9.20;4.07;;;16.10;87.30;;;;;;6181821;23;20860;-83
2023/03/31 13:55:58;;;;;;;8.82;4.45;;;16.20;83.40;;;;;;6155166;23;20710;-83
2023/03/31 13:58:47;;;;;;;8.05;4.20;;;16.50;79.40;;;;;;6156535;23;20798;-83
2023/03/31 14:01:23;;;;;;;7.67;3.87;;;16.80;78.30;;;;;;6155577;23;20377;-83
2023/03/31 14:04:15;;;;;;;8.20;3.63;;;17.20;76.60;;;;;;6153350;23;20696;-82
2023/03/31 14:06:59;;;;;;;4.93;3.47;;;17.50;74.10;;;;;;6155791;23;20706;-83
2023/03/31 14:09:48;;;;;;;8.80;4.20;;;17.80;70.70;;;;;;6180064;23;20372;-81
2023/03/31 14:12:28;;;;;;;7.57;4.23;;;18.00;68.50;;;;;;6155033;23;20420;-82
2023/03/31 14:14:55;;;;;;;7.83;3.37;;;18.00;67.10;;;;;;6156742;23;20560;-82
2023/03/31 14:17:29;;;;;;;7.55;4.32;;;18.00;67.50;;;;;;6155018;23;20396;-82
2023/03/31 14:20:31;;;;;;;6.70;3.70;;;17.80;66.90;;;;;;6155262;23;20455;-81
2023/03/31 14:23:05;;;;;;;9.13;3.92;;;17.80;71.40;;;;;;6180603;23;20372;-82
2023/03/31 14:26:08;;;;;;;7.65;3.95;;;17.70;69.30;;;;;;6156616;23;20368;-82
2023/03/31 14:28:56;;;;;;;5.68;3.50;;;17.60;70.10;;;;;;6155434;23;20400;-83
2023/03/31 14:31:27;;;;;;;12.70;4.47;;;17.60;70.00;;;;;;6180452;23;20376;-84
2023/03/31 14:34:00;;;;;;;11.43;4.43;;;17.70;67.70;;;;;;6155081;23;20383;-84
2023/03/31 14:37:07;;;;;;;8.57;4.07;;;17.80;67.20;;;;;;6155058;23;20684;-84
2023/03/31 14:39:44;;;;;;;8.48;4.20;;;17.80;66.80;;;;;;6155134;23;20369;-81
2023/03/31 14:42:21;;;;;;;8.82;4.40;;;17.70;67.00;;;;;;6181780;23;20396;-82
2023/03/31 14:44:54;;;;;;;9.07;4.83;;;17.60;66.80;;;;;;6181036;23;20379;-82
2023/03/31 14:47:23;;;;;;;10.73;4.73;;;17.40;68.60;;;;;;6155926;23;20688;-82
2023/03/31 14:50:17;;;;;;;9.73;4.70;;;17.30;71.00;;;;;;6179904;23;20385;-82
2023/03/31 14:52:51;;;;;;;7.40;4.32;;;17.20;71.00;;;;;;6155016;23;20372;-82
2023/03/31 14:55:23;;;;;;;9.20;5.10;;;17.20;73.60;;;;;;6155321;23;20447;-82
2023/03/31 14:58:00;;;;;;;10.07;4.80;;;17.20;72.70;;;;;;6159124;23;20953;-82
2023/03/31 15:00:31;;;;;;;7.10;4.45;;;17.20;71.60;;;;;;6183065;23;20399;-82
2023/03/31 15:03:02;;;;;;;9.53;4.83;;;17.30;71.70;;;;;;6157121;23;20396;-82
2023/03/31 15:05:35;;;;;;;6.30;4.47;;;17.50;70.40;;;;;;6157836;23;20451;-82
2023/03/31 15:08:05;;;;;;;8.13;3.97;;;17.70;71.70;;;;;;6181258;23;20403;-82
2023/03/31 15:10:37;;;;;;;8.02;3.60;;;18.00;66.70;;;;;;6157116;23;20376;-82
2023/03/31 15:13:10;;;;;;;5.22;3.58;;;18.30;65.60;;;;;;6156265;23;20885;-84
2023/03/31 15:15:37;;;;;;;7.22;3.35;;;18.70;61.80;;;;;;6183457;23;20399;-83
2023/03/31 15:18:04;;;;;;;5.32;2.60;;;18.80;58.90;;;;;;6156313;23;20388;-83
2023/03/31 15:20:35;;;;;;;6.45;2.10;;;18.90;57.40;;;;;;6157491;23;20435;-83
2023/03/31 15:23:26;;;;;;;4.80;2.50;;;18.90;55.30;;;;;;6182337;23;20365;-83
2023/03/31 15:25:58;;;;;;;4.57;2.28;;;18.50;53.40;;;;;;6156833;23;20391;-83
2023/03/31 15:28:30;;;;;;;4.53;2.35;;;18.30;54.90;;;;;;6158474;23;20710;-83
2023/03/31 15:30:57;;;;;;;6.03;3.00;;;18.30;55.50;;;;;;6156251;23;20383;-84
2023/03/31 15:33:40;;;;;;;6.38;3.95;;;18.10;58.80;;;;;;6160356;23;20383;-85
2023/03/31 15:36:10;;;;;;;5.85;3.25;;;17.70;59.80;;;;;;6157318;23;20360;-84
2023/03/31 15:38:38;;;;;;;7.35;3.88;;;17.40;61.20;;;;;;6157762;23;20431;-84
2023/03/31 15:41:15;;;;;;;6.03;3.30;;;17.10;63.60;;;;;;6156136;23;20785;-86
2023/03/31 15:44:06;;;;;;;6.38;2.78;;;17.00;66.50;;;;;;6109654;23;20384;-83
2023/03/31 15:46:42;;;;;;;7.28;3.00;;;17.10;64.70;;;;;;6157082;23;20373;-83
2023/03/31 15:49:29;;;;;;;7.35;2.83;;;17.20;64.40;;;;;;6156097;23;20403;-82
2023/03/31 15:51:56;;;;;;;7.90;3.33;;;17.10;62.40;;;;;;6183100;23;20435;-83
2023/03/31 15:54:41;;;;;;;5.37;2.67;;;17.10;62.70;;;;;;6182285;23;20445;-83
2023/03/31 15:57:16;;;;;;;7.35;3.30;;;17.10;63.10;;;;;;6155800;23;20758;-83
2023/03/31 15:59:50;;;;;;;5.70;2.80;;;17.00;67.40;;;;;;6179097;23;20682;-83
2023/03/31 16:02:25;;;;;;;6.82;2.67;;;16.90;61.20;;;;;;6156816;23;20422;-83
2023/03/31 16:04:58;;;;;;;5.43;2.53;;;16.70;64.70;;;;;;6155930;23;20405;-84
2023/03/31 16:07:32;;;;;;;4.83;2.17;;;16.60;66.50;;;;;;6155370;23;20378;-83
2023/03/31 16:10:18;;;;;;;3.65;1.63;;;16.50;61.40;;;;;;6156517;23;20392;-84
2023/03/31 16:13:07;;;;;;;1.30;0.83;;;16.40;54.20;;;;;;6182016;23;20834;-83
2023/03/31 16:15:39;;;;;;;4.55;1.10;;;16.40;49.80;;;;;;6182369;23;20376;-83
2023/03/31 16:18:17;;;;;;;2.78;1.10;;;16.30;50.50;;;;;;6157089;23;20392;-84
2023/03/31 16:20:52;;;;;;;3.05;1.25;;;16.10;51.20;;;;;;6181621;23;20427;-83
2023/03/31 16:23:24;;;;;;;3.30;1.23;;;15.90;53.10;;;;;;6157215;23;20375;-83
2023/03/31 16:25:51;;;;;;;4.38;2.45;;;15.80;54.70;;;;;;6156348;23;20383;-82
2023/03/31 16:28:33;;;;;;;2.47;1.63;;;15.60;55.30;;;;;;6156756;23;20845;-83
2023/03/31 16:31:01;;;;;;;2.45;1.00;;;15.50;56.00;;;;;;6156186;23;20427;-82
2023/03/31 16:33:30;;;;;;;1.75;1.15;;;15.60;54.80;;;;;;6156802;23;20414;-82
2023/03/31 16:35:57;;;;;;;2.90;1.42;;;15.60;55.90;;;;;;6155674;23;20369;-82
2023/03/31 16:38:26;;;;;;;4.00;1.33;;;15.80;54.90;;;;;;6182261;23;20386;-82
2023/03/31 16:40:56;;;;;;;4.28;1.55;;;16.00;54.40;;;;;;6155465;23;20948;-82
2023/03/31 16:43:26;;;;;;;2.38;1.20;;;16.10;53.50;;;;;;6156385;23;20711;-82